sensor_id;sensor_type;location;lat;lon;timestamp;pressure;altitude;pressure_sealevel;temperature
24639;BMP180;1641;51.306;12.384;2024-02-23T00:01:20;97266.00;;;13.90
24639;BMP180;1641;51.306;12.384;2024-02-23T00:03:45;97264.00;;;13.90
24639;BMP180;1641;51.306;12.384;2024-02-23T00:06:14;97252.00;;;13.70
24639;BMP180;1641;51.306;12.384;2024-02-23T00:08:39;97258.00;;;13.60
24639;BMP180;1641;51.306;12.384;2024-02-23T00:11:06;97262.00;;;13.40
24639;BMP180;1641;51.306;12.384;2024-02-23T00:13:35;97281.00;;;13.40
24639;BMP180;1641;51.306;12.384;2024-02-23T00:16:04;97282.00;;;13.40
24639;BMP180;1641;51.306;12.384;2024-02-23T00:18:35;97298.00;;;13.50
24639;BMP180;1641;51.306;12.384;2024-02-23T00:21:03;97315.00;;;13.70
24639;BMP180;1641;51.306;12.384;2024-02-23T00:23:31;97325.00;;;13.80
24639;BMP180;1641;51.306;12.384;2024-02-23T00:25:56;97332.00;;;13.70
24639;BMP180;1641;51.306;12.384;2024-02-23T00:28:25;97328.00;;;13.70
24639;BMP180;1641;51.306;12.384;2024-02-23T00:30:50;97306.00;;;13.80
24639;BMP180;1641;51.306;12.384;2024-02-23T00:33:15;97312.00;;;13.80
24639;BMP180;1641;51.306;12.384;2024-02-23T00:35:43;97342.00;;;13.90
24639;BMP180;1641;51.306;12.384;2024-02-23T00:38:09;97351.00;;;13.70
24639;BMP180;1641;51.306;12.384;2024-02-23T00:40:34;97344.00;;;13.60
24639;BMP180;1641;51.306;12.384;2024-02-23T00:43:00;97351.00;;;13.80
24639;BMP180;1641;51.306;12.384;2024-02-23T00:45:26;97363.00;;;13.90
24639;BMP180;1641;51.306;12.384;2024-02-23T00:47:51;97364.00;;;13.80
24639;BMP180;1641;51.306;12.384;2024-02-23T00:50:16;97359.00;;;13.70
24639;BMP180;1641;51.306;12.384;2024-02-23T00:52:42;97374.00;;;13.30
24639;BMP180;1641;51.306;12.384;2024-02-23T00:55:07;97368.00;;;13.30
24639;BMP180;1641;51.306;12.384;2024-02-23T00:57:34;97378.00;;;13.40
24639;BMP180;1641;51.306;12.384;2024-02-23T01:00:01;97389.00;;;13.30
24639;BMP180;1641;51.306;12.384;2024-02-23T01:02:28;97379.00;;;13.30
24639;BMP180;1641;51.306;12.384;2024-02-23T01:04:59;97351.00;;;13.20
24639;BMP180;1641;51.306;12.384;2024-02-23T01:07:24;97363.00;;;13.40
24639;BMP180;1641;51.306;12.384;2024-02-23T01:09:50;97376.00;;;13.30
24639;BMP180;1641;51.306;12.384;2024-02-23T01:12:27;97400.00;;;13.30
24639;BMP180;1641;51.306;12.384;2024-02-23T01:14:53;97411.00;;;13.20
24639;BMP180;1641;51.306;12.384;2024-02-23T01:17:18;97431.00;;;13.20
24639;BMP180;1641;51.306;12.384;2024-02-23T01:19:44;97444.00;;;13.20
24639;BMP180;1641;51.306;12.384;2024-02-23T01:22:10;97408.00;;;13.30
24639;BMP180;1641;51.306;12.384;2024-02-23T01:24:35;97474.00;;;13.30
24639;BMP180;1641;51.306;12.384;2024-02-23T01:27:00;97494.00;;;13.20
24639;BMP180;1641;51.306;12.384;2024-02-23T01:29:26;97476.00;;;13.10
24639;BMP180;1641;51.306;12.384;2024-02-23T01:31:51;97494.00;;;13.20
24639;BMP180;1641;51.306;12.384;2024-02-23T01:34:19;97487.00;;;13.30
24639;BMP180;1641;51.306;12.384;2024-02-23T01:36:44;97496.00;;;13.50
24639;BMP180;1641;51.306;12.384;2024-02-23T01:39:09;97496.00;;;13.30
24639;BMP180;1641;51.306;12.384;2024-02-23T01:41:36;97514.00;;;13.40
24639;BMP180;1641;51.306;12.384;2024-02-23T01:44:01;97521.00;;;13.40
24639;BMP180;1641;51.306;12.384;2024-02-23T01:46:26;97537.00;;;13.30
24639;BMP180;1641;51.306;12.384;2024-02-23T01:48:52;97533.00;;;13.50
24639;BMP180;1641;51.306;12.384;2024-02-23T01:51:17;97536.00;;;13.30
24639;BMP180;1641;51.306;12.384;2024-02-23T01:53:43;97547.00;;;13.20
24639;BMP180;1641;51.306;12.384;2024-02-23T01:56:09;97550.00;;;13.10
24639;BMP180;1641;51.306;12.384;2024-02-23T01:58:35;97549.00;;;12.80
24639;BMP180;1641;51.306;12.384;2024-02-23T02:01:02;97545.00;;;12.80
24639;BMP180;1641;51.306;12.384;2024-02-23T02:03:27;97546.00;;;12.80
24639;BMP180;1641;51.306;12.384;2024-02-23T02:05:53;97557.00;;;12.60
24639;BMP180;1641;51.306;12.384;2024-02-23T02:08:20;97563.00;;;12.90
24639;BMP180;1641;51.306;12.384;2024-02-23T02:10:45;97544.00;;;12.80
24639;BMP180;1641;51.306;12.384;2024-02-23T02:13:11;97582.00;;;12.60
24639;BMP180;1641;51.306;12.384;2024-02-23T02:15:36;97580.00;;;12.20
24639;BMP180;1641;51.306;12.384;2024-02-23T02:18:03;97591.00;;;12.60
24639;BMP180;1641;51.306;12.384;2024-02-23T02:20:32;97608.00;;;12.70
24639;BMP180;1641;51.306;12.384;2024-02-23T02:22:57;97618.00;;;12.50
24639;BMP180;1641;51.306;12.384;2024-02-23T02:25:22;97635.00;;;12.40
24639;BMP180;1641;51.306;12.384;2024-02-23T02:27:48;97644.00;;;12.20
24639;BMP180;1641;51.306;12.384;2024-02-23T02:30:13;97635.00;;;12.00
24639;BMP180;1641;51.306;12.384;2024-02-23T02:32:38;97626.00;;;11.90
24639;BMP180;1641;51.306;12.384;2024-02-23T02:35:04;97649.00;;;12.00
24639;BMP180;1641;51.306;12.384;2024-02-23T02:37:31;97656.00;;;12.10
24639;BMP180;1641;51.306;12.384;2024-02-23T02:39:56;97658.00;;;11.90
24639;BMP180;1641;51.306;12.384;2024-02-23T02:42:21;97626.00;;;11.70
24639;BMP180;1641;51.306;12.384;2024-02-23T02:44:46;97651.00;;;11.80
24639;BMP180;1641;51.306;12.384;2024-02-23T02:47:12;97659.00;;;11.90
24639;BMP180;1641;51.306;12.384;2024-02-23T02:49:39;97670.00;;;11.70
24639;BMP180;1641;51.306;12.384;2024-02-23T02:52:04;97668.00;;;11.80
24639;BMP180;1641;51.306;12.384;2024-02-23T02:54:30;97683.00;;;11.80
24639;BMP180;1641;51.306;12.384;2024-02-23T02:56:55;97674.00;;;11.80
24639;BMP180;1641;51.306;12.384;2024-02-23T02:59:20;97695.00;;;11.50
24639;BMP180;1641;51.306;12.384;2024-02-23T03:01:45;97707.00;;;11.70
24639;BMP180;1641;51.306;12.384;2024-02-23T03:04:12;97685.00;;;11.50
24639;BMP180;1641;51.306;12.384;2024-02-23T03:06:37;97707.00;;;11.10
24639;BMP180;1641;51.306;12.384;2024-02-23T03:09:22;97728.00;;;11.10
24639;BMP180;1641;51.306;12.384;2024-02-23T03:11:48;97702.00;;;10.90
24639;BMP180;1641;51.306;12.384;2024-02-23T03:14:13;97734.00;;;11.10
24639;BMP180;1641;51.306;12.384;2024-02-23T03:16:38;97719.00;;;11.20
24639;BMP180;1641;51.306;12.384;2024-02-23T03:19:04;97724.00;;;10.90
24639;BMP180;1641;51.306;12.384;2024-02-23T03:21:30;97727.00;;;11.00
24639;BMP180;1641;51.306;12.384;2024-02-23T03:23:55;97738.00;;;11.10
24639;BMP180;1641;51.306;12.384;2024-02-23T03:26:20;97688.00;;;10.90
24639;BMP180;1641;51.306;12.384;2024-02-23T03:28:46;97753.00;;;10.90
24639;BMP180;1641;51.306;12.384;2024-02-23T03:31:11;97783.00;;;10.90
24639;BMP180;1641;51.306;12.384;2024-02-23T03:33:36;97772.00;;;10.60
24639;BMP180;1641;51.306;12.384;2024-02-23T03:36:03;97766.00;;;10.60
24639;BMP180;1641;51.306;12.384;2024-02-23T03:38:28;97785.00;;;10.40
24639;BMP180;1641;51.306;12.384;2024-02-23T03:40:55;97787.00;;;10.40
24639;BMP180;1641;51.306;12.384;2024-02-23T03:43:20;97790.00;;;10.10
24639;BMP180;1641;51.306;12.384;2024-02-23T03:45:45;97789.00;;;9.90
24639;BMP180;1641;51.306;12.384;2024-02-23T03:48:11;97826.00;;;9.80
24639;BMP180;1641;51.306;12.384;2024-02-23T03:50:36;97805.00;;;9.90
24639;BMP180;1641;51.306;12.384;2024-02-23T03:53:01;97809.00;;;9.90
24639;BMP180;1641;51.306;12.384;2024-02-23T03:55:28;97818.00;;;9.90
24639;BMP180;1641;51.306;12.384;2024-02-23T03:57:53;97829.00;;;9.70
24639;BMP180;1641;51.306;12.384;2024-02-23T04:00:18;97811.00;;;9.60
24639;BMP180;1641;51.306;12.384;2024-02-23T04:02:45;97832.00;;;9.70
24639;BMP180;1641;51.306;12.384;2024-02-23T04:05:11;97838.00;;;9.80
24639;BMP180;1641;51.306;12.384;2024-02-23T04:07:36;97843.00;;;9.50
24639;BMP180;1641;51.306;12.384;2024-02-23T04:10:01;97876.00;;;9.50
24639;BMP180;1641;51.306;12.384;2024-02-23T04:12:26;97869.00;;;9.50
24639;BMP180;1641;51.306;12.384;2024-02-23T04:14:52;97886.00;;;9.40
24639;BMP180;1641;51.306;12.384;2024-02-23T04:17:17;97886.00;;;9.50
24639;BMP180;1641;51.306;12.384;2024-02-23T04:19:48;97901.00;;;9.70
24639;BMP180;1641;51.306;12.384;2024-02-23T04:22:13;97904.00;;;9.50
24639;BMP180;1641;51.306;12.384;2024-02-23T04:24:39;97906.00;;;9.60
24639;BMP180;1641;51.306;12.384;2024-02-23T04:27:06;97897.00;;;9.60
24639;BMP180;1641;51.306;12.384;2024-02-23T04:29:31;97913.00;;;9.80
24639;BMP180;1641;51.306;12.384;2024-02-23T04:31:57;97916.00;;;9.50
24639;BMP180;1641;51.306;12.384;2024-02-23T04:34:23;97910.00;;;9.50
24639;BMP180;1641;51.306;12.384;2024-02-23T04:36:48;97897.00;;;9.30
24639;BMP180;1641;51.306;12.384;2024-02-23T04:39:13;97910.00;;;9.40
24639;BMP180;1641;51.306;12.384;2024-02-23T04:41:54;97909.00;;;9.50
24639;BMP180;1641;51.306;12.384;2024-02-23T04:44:19;97915.00;;;9.30
24639;BMP180;1641;51.306;12.384;2024-02-23T04:46:44;97929.00;;;9.40
24639;BMP180;1641;51.306;12.384;2024-02-23T04:49:10;97924.00;;;9.50
24639;BMP180;1641;51.306;12.384;2024-02-23T04:51:36;97941.00;;;9.40
24639;BMP180;1641;51.306;12.384;2024-02-23T04:54:02;97925.00;;;9.70
24639;BMP180;1641;51.306;12.384;2024-02-23T04:56:28;97955.00;;;9.30
24639;BMP180;1641;51.306;12.384;2024-02-23T04:58:53;97959.00;;;9.30
24639;BMP180;1641;51.306;12.384;2024-02-23T05:01:18;97981.00;;;9.40
24639;BMP180;1641;51.306;12.384;2024-02-23T05:03:44;97983.00;;;9.20
24639;BMP180;1641;51.306;12.384;2024-02-23T05:06:10;97986.00;;;9.20
24639;BMP180;1641;51.306;12.384;2024-02-23T05:08:35;97989.00;;;9.40
24639;BMP180;1641;51.306;12.384;2024-02-23T05:11:00;97996.00;;;9.20
24639;BMP180;1641;51.306;12.384;2024-02-23T05:13:26;97997.00;;;8.90
24639;BMP180;1641;51.306;12.384;2024-02-23T05:15:51;97965.00;;;8.80
24639;BMP180;1641;51.306;12.384;2024-02-23T05:18:16;97977.00;;;8.90
24639;BMP180;1641;51.306;12.384;2024-02-23T05:20:42;97978.00;;;8.90
24639;BMP180;1641;51.306;12.384;2024-02-23T05:23:07;97989.00;;;9.00
24639;BMP180;1641;51.306;12.384;2024-02-23T05:25:32;97996.00;;;9.00
24639;BMP180;1641;51.306;12.384;2024-02-23T05:27:58;98004.00;;;9.00
24639;BMP180;1641;51.306;12.384;2024-02-23T05:30:23;97956.00;;;9.00
24639;BMP180;1641;51.306;12.384;2024-02-23T05:32:48;97993.00;;;9.20
24639;BMP180;1641;51.306;12.384;2024-02-23T05:35:14;97970.00;;;9.20
24639;BMP180;1641;51.306;12.384;2024-02-23T05:37:41;98025.00;;;9.30
24639;BMP180;1641;51.306;12.384;2024-02-23T05:40:06;98038.00;;;9.30
24639;BMP180;1641;51.306;12.384;2024-02-23T05:42:38;98021.00;;;9.20
24639;BMP180;1641;51.306;12.384;2024-02-23T05:45:04;98038.00;;;8.90
24639;BMP180;1641;51.306;12.384;2024-02-23T05:47:34;98027.00;;;8.90
24639;BMP180;1641;51.306;12.384;2024-02-23T05:49:59;98039.00;;;8.90
24639;BMP180;1641;51.306;12.384;2024-02-23T05:52:24;98063.00;;;8.80
24639;BMP180;1641;51.306;12.384;2024-02-23T05:54:50;98043.00;;;9.00
24639;BMP180;1641;51.306;12.384;2024-02-23T05:57:17;98049.00;;;9.00
24639;BMP180;1641;51.306;12.384;2024-02-23T05:59:42;98046.00;;;9.10
24639;BMP180;1641;51.306;12.384;2024-02-23T06:02:07;98066.00;;;9.20
24639;BMP180;1641;51.306;12.384;2024-02-23T06:04:32;98061.00;;;9.30
24639;BMP180;1641;51.306;12.384;2024-02-23T06:06:58;98084.00;;;9.20
24639;BMP180;1641;51.306;12.384;2024-02-23T06:09:23;98035.00;;;9.10
24639;BMP180;1641;51.306;12.384;2024-02-23T06:11:48;98049.00;;;8.90
24639;BMP180;1641;51.306;12.384;2024-02-23T06:14:13;98076.00;;;8.60
24639;BMP180;1641;51.306;12.384;2024-02-23T06:16:39;98085.00;;;8.60
24639;BMP180;1641;51.306;12.384;2024-02-23T06:19:05;98094.00;;;8.50
24639;BMP180;1641;51.306;12.384;2024-02-23T06:21:30;98063.00;;;8.80
24639;BMP180;1641;51.306;12.384;2024-02-23T06:23:57;98031.00;;;8.80
24639;BMP180;1641;51.306;12.384;2024-02-23T06:26:22;98089.00;;;8.90
24639;BMP180;1641;51.306;12.384;2024-02-23T06:28:47;98112.00;;;9.10
24639;BMP180;1641;51.306;12.384;2024-02-23T06:31:14;98102.00;;;9.20
24639;BMP180;1641;51.306;12.384;2024-02-23T06:33:39;98116.00;;;9.50
24639;BMP180;1641;51.306;12.384;2024-02-23T06:36:06;98123.00;;;9.30
24639;BMP180;1641;51.306;12.384;2024-02-23T06:38:31;98132.00;;;9.30
24639;BMP180;1641;51.306;12.384;2024-02-23T06:40:56;98129.00;;;9.40
24639;BMP180;1641;51.306;12.384;2024-02-23T06:43:22;98138.00;;;9.20
24639;BMP180;1641;51.306;12.384;2024-02-23T06:45:47;98134.00;;;9.00
24639;BMP180;1641;51.306;12.384;2024-02-23T06:48:12;98103.00;;;9.10
24639;BMP180;1641;51.306;12.384;2024-02-23T06:50:37;98138.00;;;9.30
24639;BMP180;1641;51.306;12.384;2024-02-23T06:53:03;98147.00;;;9.00
24639;BMP180;1641;51.306;12.384;2024-02-23T06:55:28;98153.00;;;9.10
24639;BMP180;1641;51.306;12.384;2024-02-23T06:57:54;98145.00;;;8.90
24639;BMP180;1641;51.306;12.384;2024-02-23T07:00:20;98115.00;;;9.20
24639;BMP180;1641;51.306;12.384;2024-02-23T07:02:46;98139.00;;;8.90
24639;BMP180;1641;51.306;12.384;2024-02-23T07:05:11;98136.00;;;9.40
24639;BMP180;1641;51.306;12.384;2024-02-23T07:07:37;98148.00;;;9.60
24639;BMP180;1641;51.306;12.384;2024-02-23T07:10:03;98144.00;;;9.40
24639;BMP180;1641;51.306;12.384;2024-02-23T07:12:28;98134.00;;;9.50
24639;BMP180;1641;51.306;12.384;2024-02-23T07:14:54;98187.00;;;9.30
24639;BMP180;1641;51.306;12.384;2024-02-23T07:17:20;98214.00;;;9.60
24639;BMP180;1641;51.306;12.384;2024-02-23T07:19:45;98197.00;;;9.40
24639;BMP180;1641;51.306;12.384;2024-02-23T07:22:10;98184.00;;;9.40
24639;BMP180;1641;51.306;12.384;2024-02-23T07:24:41;98175.00;;;9.40
24639;BMP180;1641;51.306;12.384;2024-02-23T07:27:08;98199.00;;;8.90
24639;BMP180;1641;51.306;12.384;2024-02-23T07:29:34;98200.00;;;9.00
24639;BMP180;1641;51.306;12.384;2024-02-23T07:31:59;98188.00;;;9.20
24639;BMP180;1641;51.306;12.384;2024-02-23T07:34:24;98187.00;;;9.00
24639;BMP180;1641;51.306;12.384;2024-02-23T07:36:53;98200.00;;;9.00
24639;BMP180;1641;51.306;12.384;2024-02-23T07:39:19;98209.00;;;8.80
24639;BMP180;1641;51.306;12.384;2024-02-23T07:41:44;98217.00;;;8.90
24639;BMP180;1641;51.306;12.384;2024-02-23T07:44:10;98229.00;;;8.90
24639;BMP180;1641;51.306;12.384;2024-02-23T07:46:38;98235.00;;;9.40
24639;BMP180;1641;51.306;12.384;2024-02-23T07:49:06;98244.00;;;9.20
24639;BMP180;1641;51.306;12.384;2024-02-23T07:51:31;98253.00;;;9.30
24639;BMP180;1641;51.306;12.384;2024-02-23T07:53:57;98248.00;;;9.30
24639;BMP180;1641;51.306;12.384;2024-02-23T07:56:23;98243.00;;;9.30
24639;BMP180;1641;51.306;12.384;2024-02-23T07:58:48;98226.00;;;9.40
24639;BMP180;1641;51.306;12.384;2024-02-23T08:01:17;98239.00;;;9.50
24639;BMP180;1641;51.306;12.384;2024-02-23T08:03:45;98240.00;;;9.50
24639;BMP180;1641;51.306;12.384;2024-02-23T08:06:13;98247.00;;;9.10
24639;BMP180;1641;51.306;12.384;2024-02-23T08:08:41;98255.00;;;8.90
24639;BMP180;1641;51.306;12.384;2024-02-23T08:11:09;98272.00;;;9.10
24639;BMP180;1641;51.306;12.384;2024-02-23T08:13:38;98275.00;;;9.40
24639;BMP180;1641;51.306;12.384;2024-02-23T08:16:03;98262.00;;;9.40
24639;BMP180;1641;51.306;12.384;2024-02-23T08:18:29;98242.00;;;9.80
24639;BMP180;1641;51.306;12.384;2024-02-23T08:20:54;98245.00;;;9.90
24639;BMP180;1641;51.306;12.384;2024-02-23T08:23:19;98212.00;;;9.60
24639;BMP180;1641;51.306;12.384;2024-02-23T08:25:45;98251.00;;;9.60
24639;BMP180;1641;51.306;12.384;2024-02-23T08:28:10;98249.00;;;9.90
24639;BMP180;1641;51.306;12.384;2024-02-23T08:30:36;98249.00;;;10.30
24639;BMP180;1641;51.306;12.384;2024-02-23T08:33:01;98258.00;;;10.30
24639;BMP180;1641;51.306;12.384;2024-02-23T08:35:26;98249.00;;;10.50
24639;BMP180;1641;51.306;12.384;2024-02-23T08:37:51;98251.00;;;10.30
24639;BMP180;1641;51.306;12.384;2024-02-23T08:40:17;98219.00;;;10.10
24639;BMP180;1641;51.306;12.384;2024-02-23T08:42:45;98238.00;;;10.60
24639;BMP180;1641;51.306;12.384;2024-02-23T08:45:12;98261.00;;;10.60
24639;BMP180;1641;51.306;12.384;2024-02-23T08:47:38;98262.00;;;10.70
24639;BMP180;1641;51.306;12.384;2024-02-23T08:50:05;98272.00;;;10.80
24639;BMP180;1641;51.306;12.384;2024-02-23T08:52:33;98265.00;;;10.70
24639;BMP180;1641;51.306;12.384;2024-02-23T08:54:58;98270.00;;;10.20
24639;BMP180;1641;51.306;12.384;2024-02-23T08:57:25;98248.00;;;10.40
24639;BMP180;1641;51.306;12.384;2024-02-23T08:59:54;98279.00;;;10.80
24639;BMP180;1641;51.306;12.384;2024-02-23T09:02:22;98285.00;;;11.00
24639;BMP180;1641;51.306;12.384;2024-02-23T09:04:50;98284.00;;;11.00
24639;BMP180;1641;51.306;12.384;2024-02-23T09:07:16;98305.00;;;11.50
24639;BMP180;1641;51.306;12.384;2024-02-23T09:09:41;98310.00;;;11.30
24639;BMP180;1641;51.306;12.384;2024-02-23T09:12:06;98302.00;;;11.50
24639;BMP180;1641;51.306;12.384;2024-02-23T09:14:35;98239.00;;;11.80
24639;BMP180;1641;51.306;12.384;2024-02-23T09:17:03;98265.00;;;11.70
24639;BMP180;1641;51.306;12.384;2024-02-23T09:19:29;98256.00;;;11.40
24639;BMP180;1641;51.306;12.384;2024-02-23T09:21:57;98275.00;;;11.20
24639;BMP180;1641;51.306;12.384;2024-02-23T09:24:24;98278.00;;;11.10
24639;BMP180;1641;51.306;12.384;2024-02-23T09:26:55;98256.00;;;11.00
24639;BMP180;1641;51.306;12.384;2024-02-23T09:29:24;98297.00;;;11.30
24639;BMP180;1641;51.306;12.384;2024-02-23T09:31:49;98262.00;;;11.50
24639;BMP180;1641;51.306;12.384;2024-02-23T09:34:15;98304.00;;;11.80
24639;BMP180;1641;51.306;12.384;2024-02-23T09:36:43;98287.00;;;11.50
24639;BMP180;1641;51.306;12.384;2024-02-23T09:39:08;98281.00;;;11.60
24639;BMP180;1641;51.306;12.384;2024-02-23T09:41:34;98288.00;;;12.10
24639;BMP180;1641;51.306;12.384;2024-02-23T09:44:01;98305.00;;;12.40
24639;BMP180;1641;51.306;12.384;2024-02-23T09:46:28;98286.00;;;12.00
24639;BMP180;1641;51.306;12.384;2024-02-23T09:48:54;98283.00;;;12.10
24639;BMP180;1641;51.306;12.384;2024-02-23T09:51:20;98304.00;;;12.20
24639;BMP180;1641;51.306;12.384;2024-02-23T09:53:49;98289.00;;;12.00
24639;BMP180;1641;51.306;12.384;2024-02-23T09:56:15;98300.00;;;11.80
24639;BMP180;1641;51.306;12.384;2024-02-23T09:58:42;98314.00;;;11.80
24639;BMP180;1641;51.306;12.384;2024-02-23T10:01:10;98274.00;;;11.80
24639;BMP180;1641;51.306;12.384;2024-02-23T10:03:42;98312.00;;;12.00
24639;BMP180;1641;51.306;12.384;2024-02-23T10:06:11;98319.00;;;11.60
24639;BMP180;1641;51.306;12.384;2024-02-23T10:08:37;98320.00;;;12.00
24639;BMP180;1641;51.306;12.384;2024-02-23T10:11:02;98323.00;;;12.10
24639;BMP180;1641;51.306;12.384;2024-02-23T10:13:29;98317.00;;;12.00
24639;BMP180;1641;51.306;12.384;2024-02-23T10:15:54;98317.00;;;12.00
24639;BMP180;1641;51.306;12.384;2024-02-23T10:18:20;98323.00;;;12.10
24639;BMP180;1641;51.306;12.384;2024-02-23T10:20:48;98301.00;;;12.10
24639;BMP180;1641;51.306;12.384;2024-02-23T10:23:15;98326.00;;;12.20
24639;BMP180;1641;51.306;12.384;2024-02-23T10:25:41;98336.00;;;11.70
24639;BMP180;1641;51.306;12.384;2024-02-23T10:28:06;98332.00;;;11.50
24639;BMP180;1641;51.306;12.384;2024-02-23T10:30:32;98331.00;;;11.40
24639;BMP180;1641;51.306;12.384;2024-02-23T10:32:58;98331.00;;;11.50
24639;BMP180;1641;51.306;12.384;2024-02-23T10:35:24;98325.00;;;11.70
24639;BMP180;1641;51.306;12.384;2024-02-23T10:37:51;98335.00;;;12.00
24639;BMP180;1641;51.306;12.384;2024-02-23T10:40:18;98352.00;;;11.70
24639;BMP180;1641;51.306;12.384;2024-02-23T10:42:45;98352.00;;;11.60
24639;BMP180;1641;51.306;12.384;2024-02-23T10:45:17;98342.00;;;11.60
24639;BMP180;1641;51.306;12.384;2024-02-23T10:47:43;98345.00;;;12.00
24639;BMP180;1641;51.306;12.384;2024-02-23T10:50:12;98344.00;;;11.80
24639;BMP180;1641;51.306;12.384;2024-02-23T10:52:42;98339.00;;;11.80
24639;BMP180;1641;51.306;12.384;2024-02-23T10:55:09;98350.00;;;11.30
24639;BMP180;1641;51.306;12.384;2024-02-23T10:57:35;98359.00;;;11.60
24639;BMP180;1641;51.306;12.384;2024-02-23T11:00:04;98344.00;;;11.50
24639;BMP180;1641;51.306;12.384;2024-02-23T11:02:39;98367.00;;;11.80
24639;BMP180;1641;51.306;12.384;2024-02-23T11:05:06;98381.00;;;12.20
24639;BMP180;1641;51.306;12.384;2024-02-23T11:07:38;98365.00;;;12.30
24639;BMP180;1641;51.306;12.384;2024-02-23T11:10:04;98358.00;;;12.00
24639;BMP180;1641;51.306;12.384;2024-02-23T11:12:30;98365.00;;;11.80
24639;BMP180;1641;51.306;12.384;2024-02-23T11:15:02;98367.00;;;11.50
24639;BMP180;1641;51.306;12.384;2024-02-23T11:17:36;98378.00;;;12.00
24639;BMP180;1641;51.306;12.384;2024-02-23T11:20:05;98375.00;;;11.50
24639;BMP180;1641;51.306;12.384;2024-02-23T11:22:34;98372.00;;;11.30
24639;BMP180;1641;51.306;12.384;2024-02-23T11:25:04;98373.00;;;11.60
24639;BMP180;1641;51.306;12.384;2024-02-23T11:27:31;98377.00;;;11.90
24639;BMP180;1641;51.306;12.384;2024-02-23T11:30:06;98390.00;;;12.00
24639;BMP180;1641;51.306;12.384;2024-02-23T11:32:43;98389.00;;;11.80
24639;BMP180;1641;51.306;12.384;2024-02-23T11:35:13;98383.00;;;11.80
24639;BMP180;1641;51.306;12.384;2024-02-23T11:37:49;98382.00;;;11.30
24639;BMP180;1641;51.306;12.384;2024-02-23T11:40:17;98376.00;;;11.10
24639;BMP180;1641;51.306;12.384;2024-02-23T11:42:42;98369.00;;;11.20
24639;BMP180;1641;51.306;12.384;2024-02-23T11:45:08;98372.00;;;11.60
24639;BMP180;1641;51.306;12.384;2024-02-23T11:47:34;98366.00;;;11.60
24639;BMP180;1641;51.306;12.384;2024-02-23T11:49:59;98363.00;;;11.50
24639;BMP180;1641;51.306;12.384;2024-02-23T11:52:24;98360.00;;;11.60
24639;BMP180;1641;51.306;12.384;2024-02-23T11:54:50;98360.00;;;11.80
24639;BMP180;1641;51.306;12.384;2024-02-23T11:57:32;98355.00;;;12.10
24639;BMP180;1641;51.306;12.384;2024-02-23T12:00:01;98375.00;;;12.10
24639;BMP180;1641;51.306;12.384;2024-02-23T12:02:29;98380.00;;;12.10
24639;BMP180;1641;51.306;12.384;2024-02-23T12:04:54;98351.00;;;12.00
24639;BMP180;1641;51.306;12.384;2024-02-23T12:07:19;98348.00;;;11.90
24639;BMP180;1641;51.306;12.384;2024-02-23T12:09:47;98377.00;;;11.60
24639;BMP180;1641;51.306;12.384;2024-02-23T12:12:15;98381.00;;;11.50
24639;BMP180;1641;51.306;12.384;2024-02-23T12:14:44;98378.00;;;11.60
24639;BMP180;1641;51.306;12.384;2024-02-23T12:17:09;98374.00;;;11.30
24639;BMP180;1641;51.306;12.384;2024-02-23T12:19:47;98358.00;;;11.80
24639;BMP180;1641;51.306;12.384;2024-02-23T12:22:15;98379.00;;;11.80
24639;BMP180;1641;51.306;12.384;2024-02-23T12:24:46;98350.00;;;11.60
24639;BMP180;1641;51.306;12.384;2024-02-23T12:27:17;98303.00;;;11.50
24639;BMP180;1641;51.306;12.384;2024-02-23T12:29:55;98373.00;;;11.50
24639;BMP180;1641;51.306;12.384;2024-02-23T12:32:21;98365.00;;;11.30
24639;BMP180;1641;51.306;12.384;2024-02-23T12:34:47;98371.00;;;11.70
24639;BMP180;1641;51.306;12.384;2024-02-23T12:37:16;98370.00;;;11.90
24639;BMP180;1641;51.306;12.384;2024-02-23T12:39:44;98341.00;;;12.00
24639;BMP180;1641;51.306;12.384;2024-02-23T12:42:10;98375.00;;;12.20
24639;BMP180;1641;51.306;12.384;2024-02-23T12:44:35;98306.00;;;12.00
24639;BMP180;1641;51.306;12.384;2024-02-23T12:47:01;98386.00;;;11.40
24639;BMP180;1641;51.306;12.384;2024-02-23T12:49:29;98379.00;;;11.30
24639;BMP180;1641;51.306;12.384;2024-02-23T12:51:55;98382.00;;;11.40
24639;BMP180;1641;51.306;12.384;2024-02-23T12:54:20;98365.00;;;11.70
24639;BMP180;1641;51.306;12.384;2024-02-23T12:56:55;98386.00;;;11.60
24639;BMP180;1641;51.306;12.384;2024-02-23T12:59:25;98378.00;;;11.40
24639;BMP180;1641;51.306;12.384;2024-02-23T13:01:53;98381.00;;;11.60
24639;BMP180;1641;51.306;12.384;2024-02-23T13:04:18;98380.00;;;11.50
24639;BMP180;1641;51.306;12.384;2024-02-23T13:06:47;98378.00;;;11.30
24639;BMP180;1641;51.306;12.384;2024-02-23T13:09:12;98360.00;;;11.50
24639;BMP180;1641;51.306;12.384;2024-02-23T13:11:39;98385.00;;;11.00
24639;BMP180;1641;51.306;12.384;2024-02-23T13:14:05;98384.00;;;11.20
24639;BMP180;1641;51.306;12.384;2024-02-23T13:16:30;98327.00;;;11.20
24639;BMP180;1641;51.306;12.384;2024-02-23T13:18:56;98374.00;;;11.00
24639;BMP180;1641;51.306;12.384;2024-02-23T13:21:21;98378.00;;;11.40
24639;BMP180;1641;51.306;12.384;2024-02-23T13:23:46;98373.00;;;11.70
24639;BMP180;1641;51.306;12.384;2024-02-23T13:26:12;98331.00;;;11.50
24639;BMP180;1641;51.306;12.384;2024-02-23T13:28:39;98342.00;;;11.60
24639;BMP180;1641;51.306;12.384;2024-02-23T13:31:05;98369.00;;;11.90
24639;BMP180;1641;51.306;12.384;2024-02-23T13:33:30;98366.00;;;11.60
24639;BMP180;1641;51.306;12.384;2024-02-23T13:35:55;98374.00;;;11.70
24639;BMP180;1641;51.306;12.384;2024-02-23T13:38:21;98333.00;;;11.30
24639;BMP180;1641;51.306;12.384;2024-02-23T13:40:46;98335.00;;;11.50
24639;BMP180;1641;51.306;12.384;2024-02-23T13:43:12;98362.00;;;11.10
24639;BMP180;1641;51.306;12.384;2024-02-23T13:45:49;98361.00;;;11.30
24639;BMP180;1641;51.306;12.384;2024-02-23T13:48:15;98335.00;;;11.10
24639;BMP180;1641;51.306;12.384;2024-02-23T13:50:40;98368.00;;;11.30
24639;BMP180;1641;51.306;12.384;2024-02-23T13:53:06;98365.00;;;11.60
24639;BMP180;1641;51.306;12.384;2024-02-23T13:55:31;98384.00;;;11.20
24639;BMP180;1641;51.306;12.384;2024-02-23T13:57:56;98358.00;;;11.20
24639;BMP180;1641;51.306;12.384;2024-02-23T14:00:22;98357.00;;;11.10
24639;BMP180;1641;51.306;12.384;2024-02-23T14:02:47;98377.00;;;11.30
24639;BMP180;1641;51.306;12.384;2024-02-23T14:05:13;98387.00;;;11.20
24639;BMP180;1641;51.306;12.384;2024-02-23T14:07:43;98330.00;;;11.20
24639;BMP180;1641;51.306;12.384;2024-02-23T14:10:09;98388.00;;;10.90